Airfield :
LOGIN :

Register | Disclaimer

   EN    FR    IT 

 










Legend :    VFR   Marginal VFR   IFR   Intensive IFR   Very Intensive IFR
Visi :
Ceiling :
>= 8 km
>= 3000ft
5 to 8 km
1000 to 3000 ft
1500m to 5 km
500 to 1000 ft
800 to 1500m
200 to 500 ft
< 800m
< 200 ft
Symbols :   Thunderstorms  Fog  Heavy snow  Heavy precipitations  Wind > 20 kt
SIGMETs :     Misc.  Thunderstorms  Icing  Turbulence  Mountain Waves  Volcanic Ashes







- Airport Elevation : 461 ft
- IATA code : WIE


ETOU - Wiesbaden Army

CURRENT METAR :
  • 190556Z AUTO 00000KT 9999 SCT170 21/16 A2984 RMK AO2 SLP100 T02050159 10205 20161 58002 $

EXPIRED METARs :
  • 190456Z AUTO 00000KT 9999 BKN180 18/15 A2984 RMK AO2 SLP101 T01840154 $
  • 190403Z 00000KT 9999 SCT220 16/14 A2984 RMK A02A SLP101 T01610139 $
  • 190356Z AUTO 00000KT 6000 HZ CLR 16/14 A2984 RMK AO2 SLP101 T01620138 $

TAF TAF ETOU
Valid from the 19 at 03:00 until the 20 at 09:00 UTC


190303Z 1903/2009 VRB06KT 9999 BKN120 QNH2983INS
BECMG 1906/1907 16009KT 9999 FEW110 QNH2980INS
TEMPO 1911/1915 20010G15KT
TEMPO 1920/2001 22009KT 8000 -TSRA BKN050CB
BECMG 2002/2003 23006KT 9999 BKN050 QNH2985INS TX29/1913Z TN13/1904Z
No reported NOTAMs for that airfield.



MET'MAP, your aeronautical weather chart ! - Copyright ORBIFLY December 2007 - Disclaimer

ORBIFLY MET'MAP TEAM :

Programming & Development : Alexandra Zaïnal
Concept & Development : Baudouin d'Aumeries
Co-Development & Prog : Marc-Olivier Méhu
Technical & hardware support : Manuel Goepfert

Contact : metmap@orbifly.com




SOURCES & CREDITS :

   NOAA